Time,TemperatureF,DewpointF,PressureIn,WindDirection,WindDirectionDegrees,WindSpeedMPH,WindSpeedGustMPH,Humidity,HourlyPrecipIn,Conditions,Clouds,dailyrainin,SoftwareType,DateUTC
2013-08-27 00:21:00,64.0,47.0,30.11,East,98,10.0,17.0,55,0.00,,,0.04,,2013-08-27 06:21:00,
2013-08-27 00:42:00,64.0,47.0,30.11,ESE,113,10.0,15.0,55,0.00,,,0.04,,2013-08-27 06:42:00,
2013-08-27 00:52:00,64.0,47.0,30.11,SE,125,9.0,12.0,55,0.00,,,0.00,,2013-08-27 06:52:00,
2013-08-27 01:12:00,64.0,48.0,30.11,ESE,113,10.0,14.0,56,0.00,,,0.00,,2013-08-27 07:12:00,
2013-08-27 01:21:00,64.0,47.0,30.11,ESE,119,10.0,15.0,55,0.00,,,0.00,,2013-08-27 07:21:00,
2013-08-27 01:52:00,64.0,47.0,30.12,SE,125,7.0,13.0,55,0.00,,,0.00,,2013-08-27 07:52:00,
2013-08-27 02:22:00,64.0,48.0,30.11,SE,124,11.0,17.0,57,0.00,,,0.00,,2013-08-27 08:22:00,
2013-08-27 02:42:00,63.0,48.0,30.11,SE,124,10.0,16.0,58,0.00,,,0.00,,2013-08-27 08:42:00,
2013-08-27 02:52:00,62.0,47.0,30.11,ESE,115,10.0,14.0,59,0.00,,,0.00,,2013-08-27 08:52:00,
2013-08-27 03:21:00,62.0,47.0,30.10,SE,129,10.0,17.0,59,0.00,,,0.00,,2013-08-27 09:21:00,
2013-08-27 03:54:00,62.0,47.0,30.10,ESE,119,11.0,16.0,59,0.00,,,0.00,,2013-08-27 09:54:00,
2013-08-27 04:25:00,62.0,48.0,30.10,SE,125,11.0,15.0,60,0.00,,,0.00,,2013-08-27 10:25:00,
2013-08-27 04:43:00,61.0,48.0,30.10,ESE,111,11.0,14.0,62,0.00,,,0.00,,2013-08-27 10:43:00,
2013-08-27 04:53:00,61.0,48.0,30.10,ESE,105,10.0,13.0,62,0.00,,,0.00,,2013-08-27 10:53:00,
2013-08-27 05:22:00,61.0,48.0,30.10,ESE,117,10.0,13.0,63,0.00,,,0.00,,2013-08-27 11:22:00,
2013-08-27 05:52:00,61.0,48.0,30.11,ESE,118,10.0,15.0,63,0.00,,,0.00,,2013-08-27 11:52:00,
2013-08-27 06:11:00,61.0,49.0,30.11,SE,129,11.0,15.0,64,0.00,,,0.00,,2013-08-27 12:11:00,
2013-08-27 06:21:00,60.0,48.0,30.11,SE,128,10.0,14.0,65,0.00,,,0.00,,2013-08-27 12:21:00,
2013-08-27 06:42:00,61.0,49.0,30.11,SE,126,10.0,15.0,64,0.00,,,0.00,,2013-08-27 12:42:00,
2013-08-27 06:52:00,61.0,49.0,30.11,ESE,113,12.0,17.0,64,0.00,,,0.00,,2013-08-27 12:52:00,
2013-08-27 07:11:00,60.0,48.0,30.11,ESE,117,11.0,14.0,65,0.00,,,0.00,,2013-08-27 13:11:00,
2013-08-27 07:22:00,61.0,49.0,30.12,ESE,120,10.0,14.0,65,0.00,,,0.00,,2013-08-27 13:22:00,
2013-08-27 07:52:00,61.0,49.0,30.12,ESE,110,9.0,12.0,64,0.00,,,0.00,,2013-08-27 13:52:00,
2013-08-27 08:22:00,62.0,49.0,30.12,ESE,107,9.0,15.0,63,0.00,,,0.00,,2013-08-27 14:22:00,
2013-08-27 08:53:00,65.0,50.0,30.13,ESE,111,11.0,16.0,59,0.00,,,0.00,,2013-08-27 14:53:00,
2013-08-27 09:45:00,67.0,50.0,30.13,SE,130,11.0,16.0,55,0.00,,,0.00,,2013-08-27 15:45:00,
2013-08-27 09:58:00,67.0,49.0,30.13,ESE,115,11.0,16.0,53,0.00,,,0.00,,2013-08-27 15:58:00,
2013-08-27 10:17:00,68.0,51.0,30.13,ESE,109,9.0,16.0,54,0.00,,,0.00,,2013-08-27 16:17:00,
2013-08-27 10:28:00,69.0,51.0,30.13,ESE,107,12.0,18.0,52,0.00,,,0.00,,2013-08-27 16:28:00,
2013-08-27 10:55:00,69.0,50.0,30.13,ESE,115,13.0,17.0,50,0.00,,,0.00,,2013-08-27 16:55:00,
2013-08-27 11:13:00,70.0,50.0,30.13,East,90,10.0,15.0,49,0.00,,,0.00,,2013-08-27 17:13:00,
2013-08-27 11:22:00,71.0,51.0,30.12,ESE,105,8.0,15.0,49,0.00,,,0.00,,2013-08-27 17:22:00,
2013-08-27 11:52:00,70.0,49.0,30.12,ESE,122,11.0,15.0,47,0.00,,,0.00,,2013-08-27 17:52:00,
2013-08-27 12:21:00,72.0,50.0,30.12,ESE,109,10.0,17.0,46,0.00,,,0.00,,2013-08-27 18:21:00,
2013-08-27 12:52:00,72.0,49.0,30.11,SSE,162,5.0,13.0,44,0.00,,,0.00,,2013-08-27 18:52:00,
2013-08-27 13:11:00,72.0,49.0,30.11,SE,146,8.0,14.0,45,0.00,,,0.00,,2013-08-27 19:11:00,
2013-08-27 13:22:00,72.0,49.0,30.11,SE,146,10.0,14.0,44,0.00,,,0.00,,2013-08-27 19:22:00,
2013-08-27 13:52:00,73.0,50.0,30.10,ESE,113,8.0,14.0,44,0.00,,,0.00,,2013-08-27 19:52:00,
2013-08-27 14:11:00,73.0,48.0,30.10,ESE,113,8.0,13.0,41,0.00,,,0.00,,2013-08-27 20:11:00,